createdAt,value
2016-05-18T00:00:49.431Z,67.94
2016-05-18T00:01:50.011Z,68.23
2016-05-18T00:02:49.969Z,67.47
2016-05-18T00:03:50.033Z,67
2016-05-18T00:04:49.630Z,66.9
2016-05-18T00:05:49.711Z,66.9
2016-05-18T00:06:50.260Z,66.61
2016-05-18T00:07:49.950Z,66.8
2016-05-18T00:09:49.987Z,67.57
2016-05-18T00:10:50.724Z,67.38
2016-05-18T00:11:50.618Z,67.09
2016-05-18T00:12:50.870Z,67
2016-05-18T00:13:50.373Z,66.71
2016-05-18T00:14:50.329Z,66.71
2016-05-18T00:15:49.737Z,66.8
2016-05-18T00:16:50.677Z,66.52
2016-05-18T00:17:49.571Z,67.19
2016-05-18T00:18:50.183Z,67.38
2016-05-18T00:19:49.576Z,67.28
2016-05-18T00:20:49.970Z,67.09
2016-05-18T00:21:49.878Z,66.61
2016-05-18T00:22:49.334Z,66.61
2016-05-18T00:23:49.603Z,66.9
2016-05-18T00:24:50.167Z,66.9
2016-05-18T00:25:49.656Z,66.42
2016-05-18T00:26:49.736Z,67
2016-05-18T00:27:49.785Z,67.09
2016-05-18T00:28:49.584Z,67
2016-05-18T00:29:49.931Z,66.24
2016-05-18T00:30:49.544Z,66.33
2016-05-18T00:31:49.483Z,65.57
2016-05-18T00:32:49.487Z,65.76
2016-05-18T00:33:49.583Z,65.76
2016-05-18T00:35:01.179Z,66.42
2016-05-18T00:36:04.872Z,67
2016-05-18T00:37:45.562Z,66.42
2016-05-18T00:38:49.816Z,66.8
2016-05-18T00:39:51.677Z,67.09
2016-05-18T00:41:31.402Z,66.71
2016-05-18T00:43:08.062Z,65.57
2016-05-18T00:44:22.003Z,67.38
2016-05-18T00:45:34.365Z,66.9
2016-05-18T00:46:42.852Z,66.9
2016-05-18T00:47:18.760Z,67.09
2016-05-18T00:48:18.935Z,67.09
2016-05-18T00:49:18.953Z,67.47
2016-05-18T00:50:18.910Z,67.66
2016-05-18T00:51:22.146Z,67.09
2016-05-18T00:52:18.853Z,68.13
2016-05-18T00:53:19.215Z,68.52
2016-05-18T00:54:18.779Z,66.71
2016-05-18T00:55:21.611Z,66.33
2016-05-18T00:56:19.003Z,66.61
2016-05-18T00:57:18.756Z,66.9
2016-05-18T00:59:21.403Z,67.57
2016-05-18T01:00:18.749Z,66.9
2016-05-18T01:01:21.298Z,66.52
2016-05-18T01:02:19.145Z,66.8
2016-05-18T01:03:19.053Z,66.33
2016-05-18T01:04:21.353Z,66.42
2016-05-18T01:05:20.934Z,65.86
2016-05-18T01:06:21.625Z,66.24
2016-05-18T01:07:21.236Z,66.24
2016-05-18T01:08:21.458Z,65.76
2016-05-18T01:09:21.820Z,66.61
2016-05-18T01:10:28.010Z,66.42
2016-05-18T01:11:21.279Z,65.38
2016-05-18T01:12:21.359Z,65.57
2016-05-18T01:13:21.347Z,66.33
2016-05-18T01:14:21.458Z,66.24
2016-05-18T01:15:21.367Z,65.67
2016-05-18T01:16:21.354Z,65.86
2016-05-18T01:17:21.638Z,66.71
2016-05-18T01:18:20.829Z,66.61
2016-05-18T01:19:21.221Z,65.57
2016-05-18T01:20:21.241Z,65.95
2016-05-18T01:21:21.243Z,66.52
2016-05-18T01:22:20.887Z,66.61
2016-05-18T01:23:21.889Z,67
2016-05-18T01:24:21.375Z,66.05
2016-05-18T01:25:21.129Z,65.57
2016-05-18T01:26:21.162Z,65.86
2016-05-18T01:27:21.525Z,65.38
2016-05-18T01:28:21.528Z,65.86
2016-05-18T01:29:21.655Z,65.95
2016-05-18T01:30:21.283Z,65.86
2016-05-18T01:31:21.285Z,65.57
2016-05-18T01:32:21.570Z,65.57
2016-05-18T01:33:21.384Z,65.19
2016-05-18T01:34:21.153Z,65.67
2016-05-18T01:35:21.421Z,65.19
2016-05-18T01:36:20.861Z,65.86
2016-05-18T01:37:21.599Z,65.28
2016-05-18T01:38:21.710Z,65.67
2016-05-18T01:39:21.338Z,65.95
2016-05-18T01:40:21.278Z,65.19
2016-05-18T01:41:21.235Z,65.86
2016-05-18T01:42:21.330Z,65.76
2016-05-18T01:43:21.161Z,65.57
2016-05-18T01:44:21.305Z,65.67
2016-05-18T01:45:21.260Z,65.95
2016-05-18T01:46:21.544Z,65.86
2016-05-18T01:47:21.391Z,65.76
2016-05-18T01:48:20.988Z,65.57
2016-05-18T01:49:21.021Z,65.09
2016-05-18T01:50:21.102Z,65.86
2016-05-18T01:51:21.042Z,65.57
2016-05-18T01:52:21.217Z,65.19
2016-05-18T01:53:21.501Z,64.9
2016-05-18T01:54:21.534Z,64.34
2016-05-18T01:55:21.693Z,65.28
2016-05-18T01:56:21.040Z,65
2016-05-18T01:57:21.090Z,65.57
2016-05-18T01:58:20.905Z,65.57
2016-05-18T01:59:21.314Z,65.57
2016-05-18T02:02:21.042Z,65.47
2016-05-18T02:03:21.028Z,65.95
2016-05-18T02:04:21.452Z,64.9
2016-05-18T02:05:21.205Z,65
2016-05-18T02:06:21.161Z,64.62
2016-05-18T02:07:18.100Z,64.81
2016-05-18T02:08:21.119Z,64.9
2016-05-18T02:09:21.247Z,65.09
2016-05-18T02:10:20.671Z,65.76
2016-05-18T02:11:21.191Z,65.67
2016-05-18T02:12:20.739Z,64.9
2016-05-18T02:13:21.038Z,64.53
2016-05-18T02:14:21.214Z,64.81
2016-05-18T02:15:20.810Z,64.81
2016-05-18T02:16:20.969Z,65.86
2016-05-18T02:17:21.174Z,65.67
2016-05-18T02:18:20.880Z,65.57
2016-05-18T02:19:21.493Z,65.76
2016-05-18T02:20:20.370Z,65.86
2016-05-18T02:21:20.654Z,65.09
2016-05-18T02:22:21.298Z,65
2016-05-18T02:23:20.988Z,65.09
2016-05-18T02:24:21.068Z,65.67
2016-05-18T02:26:20.652Z,64.62
2016-05-18T02:27:20.733Z,64.34
2016-05-18T02:28:24.986Z,64.34
2016-05-18T02:29:17.988Z,64.34
2016-05-18T02:30:21.476Z,63.57
2016-05-18T02:31:17.962Z,63.2
2016-05-18T02:32:21.403Z,63.6
2016-05-18T02:33:20.389Z,63.67
2016-05-18T02:34:21.033Z,64.14
2016-05-18T02:35:20.645Z,63.79
2016-05-18T02:36:17.929Z,64.14
2016-05-18T02:37:18.056Z,64.37
2016-05-18T02:38:17.888Z,63.7
2016-05-18T02:39:21.156Z,63.86
2016-05-18T02:40:20.908Z,64.14
2016-05-18T02:41:18.083Z,64.43
2016-05-18T02:42:20.711Z,64.14
2016-05-18T02:43:18.010Z,64.24
2016-05-18T02:44:20.919Z,64.9
2016-05-18T02:45:17.937Z,64.62
2016-05-18T02:46:17.863Z,64.34
2016-05-18T02:47:17.724Z,63.86
2016-05-18T02:48:20.477Z,63.86
2016-05-18T02:49:17.401Z,64.14
2016-05-18T02:51:17.704Z,64.81
2016-05-18T02:52:20.565Z,64.62
2016-05-18T02:53:17.772Z,65.09
2016-05-18T02:54:17.681Z,64.9
2016-05-18T02:55:17.714Z,65.86
2016-05-18T02:56:20.373Z,64.53
2016-05-18T02:58:17.676Z,65.19
2016-05-18T02:59:17.709Z,65.09
2016-05-18T03:00:17.697Z,64.72
2016-05-18T03:01:17.653Z,64.43
2016-05-18T03:02:20.202Z,64.05
2016-05-18T03:03:17.689Z,63.86
2016-05-18T03:04:17.895Z,63.48
2016-05-18T03:05:18.257Z,63.89
2016-05-18T03:06:20.447Z,64.24
2016-05-18T03:07:17.747Z,64.46
2016-05-18T03:08:18.593Z,64.75
2016-05-18T03:09:19.752Z,64.62
2016-05-18T03:10:20.458Z,64.34
2016-05-18T03:11:31.960Z,65.09
2016-05-18T03:12:48.198Z,65.13
2016-05-18T03:14:34.296Z,65.86
2016-05-18T03:14:49.890Z,65.67
2016-05-18T03:15:51.455Z,65.38
2016-05-18T03:16:51.068Z,65.67
2016-05-18T03:17:49.977Z,65.95
2016-05-18T03:18:50.229Z,65.47
2016-05-18T03:19:50.608Z,65.86
2016-05-18T03:20:51.188Z,65
2016-05-18T03:21:59.143Z,65.09
2016-05-18T03:23:49.929Z,64.46
2016-05-18T03:24:50.308Z,64.72
2016-05-18T03:25:49.920Z,64.43
2016-05-18T03:26:51.001Z,64.37
2016-05-18T03:28:50.475Z,65.19
2016-05-18T03:29:50.884Z,64.9
2016-05-18T03:31:50.781Z,63.95
2016-05-18T03:32:50.704Z,63.79
2016-05-18T03:33:51.192Z,63.89
2016-05-18T03:34:50.881Z,63.99
2016-05-18T03:35:50.697Z,64.37
2016-05-18T03:36:49.825Z,63.89
2016-05-18T03:37:49.874Z,62.85
2016-05-18T03:38:50.628Z,63.04
2016-05-18T03:39:50.113Z,63.79
2016-05-18T03:40:50.944Z,62.85
2016-05-18T03:41:51.010Z,62.37
2016-05-18T03:42:50.981Z,62.85
2016-05-18T03:43:51.078Z,62.85
2016-05-18T03:44:49.753Z,63.79
2016-05-18T03:45:50.693Z,62.85
2016-05-18T03:46:51.289Z,63.89
2016-05-18T03:47:50.902Z,63.89
2016-05-18T03:48:50.404Z,63.04
2016-05-18T03:49:50.922Z,62.85
2016-05-18T03:50:50.550Z,62.46
2016-05-18T03:51:50.146Z,62.85
2016-05-18T03:52:51.227Z,62.27
2016-05-18T03:53:49.760Z,63.04
2016-05-18T03:54:51.624Z,62.08
2016-05-18T03:55:49.641Z,61.71
2016-05-18T03:56:50.707Z,62.37
2016-05-18T03:57:49.710Z,62.46
2016-05-18T03:58:49.290Z,62.56
2016-05-18T03:59:50.496Z,63.32
2016-05-18T04:00:50.483Z,62.75
2016-05-18T04:01:49.814Z,62.85
2016-05-18T04:02:49.582Z,63.04
2016-05-18T04:03:51.070Z,63.23
2016-05-18T04:04:49.525Z,62.75
2016-05-18T04:05:49.590Z,62.56
2016-05-18T04:06:49.265Z,63.32
2016-05-18T04:07:49.705Z,63.32
2016-05-18T04:08:49.426Z,62.37
2016-05-18T04:09:49.508Z,62.94
2016-05-18T04:10:49.603Z,62.65
2016-05-18T04:12:49.687Z,64.65
2016-05-18T04:13:49.128Z,64.56
2016-05-18T04:14:49.630Z,63.51
2016-05-18T04:15:49.477Z,64.08
2016-05-18T04:16:50.932Z,64.84
2016-05-18T04:17:49.310Z,64.84
2016-05-18T04:18:50.547Z,65.41
2016-05-18T04:19:49.455Z,64.94
2016-05-18T04:20:49.084Z,64.37
2016-05-18T04:21:49.508Z,63.79
2016-05-18T04:23:51.091Z,64.37
2016-05-18T04:24:50.438Z,64.18
2016-05-18T04:25:51.597Z,63.89
2016-05-18T04:26:49.599Z,63.6
2016-05-18T04:27:50.885Z,64.18
2016-05-18T04:28:50.152Z,63.04
2016-05-18T04:29:49.764Z,62.18
2016-05-18T04:30:50.860Z,62.85
2016-05-18T04:31:50.972Z,63.99
2016-05-18T04:32:51.303Z,63.6
2016-05-18T04:33:49.900Z,64.08
2016-05-18T04:34:50.434Z,62.37
2016-05-18T04:35:50.453Z,63.13
2016-05-18T04:36:50.627Z,63.42
2016-05-18T04:37:49.817Z,64.56
2016-05-18T04:38:51.086Z,64.37
2016-05-18T04:39:50.057Z,62.85
2016-05-18T04:40:49.481Z,63.42
2016-05-18T04:41:50.453Z,63.42
2016-05-18T04:42:51.283Z,63.89
2016-05-18T04:43:50.177Z,62.65
2016-05-18T04:44:50.320Z,63.04
2016-05-18T04:45:49.433Z,62.37
2016-05-18T04:46:50.294Z,62.94
2016-05-18T04:47:50.922Z,62.37
2016-05-18T04:48:51.237Z,61.9
2016-05-18T04:49:50.146Z,61.23
2016-05-18T04:50:51.711Z,61.8
2016-05-18T04:51:50.558Z,61.42
2016-05-18T04:52:50.280Z,61.32
2016-05-18T04:53:50.282Z,60.75
2016-05-18T04:54:50.254Z,60.75
2016-05-18T04:55:51.021Z,61.16
2016-05-18T04:56:50.384Z,61.61
2016-05-18T04:57:48.823Z,62.4
2016-05-18T04:58:50.358Z,60.12
2016-05-18T04:59:50.438Z,60.41
2016-05-18T05:00:50.660Z,60.12
2016-05-18T05:01:49.991Z,61.26
2016-05-18T05:02:50.900Z,61.64
2016-05-18T05:03:49.981Z,61.45
2016-05-18T05:04:49.014Z,61.35
2016-05-18T05:05:51.376Z,60.31
2016-05-18T05:06:49.020Z,61.45
2016-05-18T05:07:48.772Z,61.64
2016-05-18T05:08:49.947Z,60.12
2016-05-18T05:10:15.639Z,59.74
2016-05-18T05:10:50.061Z,60.12
2016-05-18T05:12:48.942Z,61.16
2016-05-18T05:13:49.695Z,61.16
2016-05-18T05:14:49.057Z,60.88
2016-05-18T05:15:50.450Z,60.5
2016-05-18T05:16:50.094Z,61.07
2016-05-18T05:17:49.175Z,60.78
2016-05-18T05:18:50.022Z,60.88
2016-05-18T05:19:50.649Z,60.21
2016-05-18T05:20:48.963Z,60.6
2016-05-18T05:21:48.591Z,60.6
2016-05-18T05:22:48.610Z,60.88
2016-05-18T05:23:48.910Z,60.69
2016-05-18T05:24:49.210Z,59.93
2016-05-18T05:25:50.212Z,59.74
2016-05-18T05:26:48.636Z,59.39
2016-05-18T05:27:48.935Z,58.91
2016-05-18T05:28:49.752Z,59.29
2016-05-18T05:29:48.863Z,59.96
2016-05-18T05:30:49.553Z,60.05
2016-05-18T05:31:48.478Z,59.77
2016-05-18T05:32:49.793Z,58.53
2016-05-18T05:33:49.640Z,59.39
2016-05-18T05:34:49.579Z,59.1
2016-05-18T05:35:48.926Z,59.58
2016-05-18T05:36:48.741Z,59.86
2016-05-18T05:37:49.729Z,59.39
2016-05-18T05:38:48.856Z,59.77
2016-05-18T05:39:49.937Z,59.58
2016-05-18T05:40:49.846Z,58.62
2016-05-18T05:41:48.489Z,59.1
2016-05-18T05:42:49.570Z,58.62
2016-05-18T05:43:50.869Z,59.01
2016-05-18T05:44:49.481Z,58.62
2016-05-18T05:45:49.875Z,59.39
2016-05-18T05:46:50.189Z,58.91
2016-05-18T05:47:48.646Z,58.37
2016-05-18T05:48:49.805Z,58.18
2016-05-18T05:49:50.057Z,58.47
2016-05-18T05:50:48.825Z,58.18
2016-05-18T05:51:48.797Z,58.28
2016-05-18T05:52:48.596Z,57.99
2016-05-18T05:53:48.505Z,58.08
2016-05-18T05:54:49.774Z,57.7
2016-05-18T05:55:48.746Z,56.97
2016-05-18T05:56:48.561Z,56.49
2016-05-18T05:57:48.674Z,56.3
2016-05-18T05:58:48.613Z,56.4
2016-05-18T05:59:48.771Z,57.07
2016-05-18T06:00:48.681Z,55.44
2016-05-18T06:01:48.824Z,56.4
2016-05-18T06:02:48.733Z,57.54
2016-05-18T06:03:48.454Z,56.97
2016-05-18T06:04:49.129Z,56.21
2016-05-18T06:05:48.804Z,54.68
2016-05-18T06:06:49.993Z,54.71
2016-05-18T06:07:49.856Z,56.43
2016-05-18T06:08:49.515Z,56.33
2016-05-18T06:09:48.220Z,57.57
2016-05-18T06:10:49.614Z,57.19
2016-05-18T06:11:49.695Z,57.38
2016-05-18T06:12:48.681Z,55.28
2016-05-18T06:13:48.450Z,56.04
2016-05-18T06:14:48.452Z,55.95
2016-05-18T06:15:48.580Z,55.76
2016-05-18T06:16:48.521Z,53.95
2016-05-18T06:17:49.383Z,53.28
2016-05-18T06:18:48.432Z,53.95
2016-05-18T06:19:48.357Z,55.38
2016-05-18T06:20:48.172Z,56.14
2016-05-18T06:21:48.066Z,56.43
2016-05-18T06:22:48.349Z,55.19
2016-05-18T06:23:48.664Z,55.66
2016-05-18T06:24:48.433Z,54.33
2016-05-18T06:25:49.451Z,52.04
2016-05-18T06:26:48.391Z,52.23
2016-05-18T06:27:48.316Z,54.24
2016-05-18T06:28:48.349Z,54.71
2016-05-18T06:29:48.305Z,55.28
2016-05-18T06:30:49.449Z,55.47
2016-05-18T06:31:49.592Z,56.07
2016-05-18T06:32:49.517Z,56.36
2016-05-18T06:33:48.707Z,55.98
2016-05-18T06:34:49.616Z,53.97
2016-05-18T06:35:48.354Z,53.78
2016-05-18T06:36:48.543Z,55.41
2016-05-18T06:37:48.281Z,54.93
2016-05-18T06:38:49.376Z,53.88
2016-05-18T06:39:48.520Z,53.78
2016-05-18T06:40:49.492Z,52.26
2016-05-18T06:41:49.510Z,54.07
2016-05-18T06:42:49.528Z,55.98
2016-05-18T06:43:48.296Z,56.46
2016-05-18T06:44:49.377Z,55.69
2016-05-18T06:45:49.473Z,55.69
2016-05-18T06:46:49.430Z,54.86
2016-05-18T06:47:49.775Z,55.24
2016-05-18T06:48:49.670Z,54.29
2016-05-18T06:49:49.297Z,54.19
2016-05-18T06:50:48.472Z,53.05
2016-05-18T06:51:48.490Z,54.1
2016-05-18T06:52:48.664Z,53.53
2016-05-18T06:53:49.542Z,53.05
2016-05-18T06:54:47.936Z,52.67
2016-05-18T06:55:49.391Z,54.03
2016-05-18T06:57:48.241Z,54.22
2016-05-18T06:58:48.165Z,51.93
2016-05-18T06:59:48.402Z,51.64
2016-05-18T07:01:48.391Z,51.62
2016-05-18T07:02:48.613Z,52.48
2016-05-18T07:03:48.241Z,52
2016-05-18T07:04:48.321Z,51.62
2016-05-18T07:05:48.168Z,51.14
2016-05-18T07:06:49.421Z,50.76
2016-05-18T07:07:48.361Z,52.86
2016-05-18T07:08:49.004Z,52.48
2016-05-18T07:09:49.054Z,50.95
2016-05-18T07:10:48.104Z,50.76
2016-05-18T07:11:49.387Z,51.23
2016-05-18T07:12:49.015Z,52.76
2016-05-18T07:13:49.298Z,50.67
2016-05-18T07:14:48.318Z,50.85
2016-05-18T07:15:48.383Z,51.74
2016-05-18T07:16:49.167Z,52.98
2016-05-18T07:17:48.122Z,52.4
2016-05-18T07:18:48.891Z,51.54
2016-05-18T07:19:48.440Z,50.21
2016-05-18T07:20:48.489Z,50.12
2016-05-18T07:21:49.336Z,51.74
2016-05-18T07:22:48.308Z,50.49
2016-05-18T07:23:48.763Z,50.69
2016-05-18T07:24:48.250Z,49.44
2016-05-18T07:25:48.128Z,49.35
2016-05-18T07:26:48.303Z,50.21
2016-05-18T07:27:48.305Z,50.02
2016-05-18T07:28:48.058Z,49.07
2016-05-18T07:29:49.030Z,50.69
2016-05-18T07:30:48.314Z,51.17
2016-05-18T07:31:49.458Z,50.78
2016-05-18T07:32:48.069Z,51.07
2016-05-18T07:33:47.821Z,50.69
2016-05-18T07:34:48.809Z,49.35
2016-05-18T07:35:47.999Z,48.59
2016-05-18T07:36:47.705Z,48.33
2016-05-18T07:37:48.004Z,48.52
2016-05-18T07:38:49.179Z,49.38
2016-05-18T07:39:49.306Z,48.61
2016-05-18T07:40:48.122Z,48.99
2016-05-18T07:41:48.374Z,49.66
2016-05-18T07:42:48.362Z,49.88
2016-05-18T07:43:49.708Z,50.16
2016-05-18T07:45:48.885Z,49.88
2016-05-18T07:46:48.904Z,48.73
2016-05-18T07:47:48.062Z,48.64
2016-05-18T07:48:48.972Z,49.02
2016-05-18T07:49:47.989Z,48.83
2016-05-18T07:50:47.914Z,49.3
2016-05-18T07:51:49.026Z,48.73
2016-05-18T07:52:48.575Z,47.49
2016-05-18T07:53:48.922Z,47.39
2016-05-18T07:54:48.003Z,45.87
2016-05-18T07:55:48.022Z,46.34
2016-05-18T07:56:48.352Z,47.2
2016-05-18T07:57:48.839Z,50.84
2016-05-18T07:58:47.904Z,50.84
2016-05-18T07:59:48.970Z,50.86
2016-05-18T08:00:48.880Z,49.3
2016-05-18T08:01:48.803Z,47.71
2016-05-18T08:02:48.322Z,47.32
2016-05-18T08:03:48.558Z,48.28
2016-05-18T08:04:47.530Z,47.71
2016-05-18T08:05:47.830Z,46.75
2016-05-18T08:06:48.723Z,48.38
2016-05-18T08:07:49.038Z,48.97
2016-05-18T08:08:48.088Z,48.59
2016-05-18T08:09:47.919Z,47.73
2016-05-18T08:10:47.827Z,47.06
2016-05-18T08:11:47.565Z,44.67
2016-05-18T08:12:48.895Z,45.15
2016-05-18T08:13:47.835Z,44
2016-05-18T08:14:47.995Z,42.58
2016-05-18T08:15:48.044Z,42.49
2016-05-18T08:16:48.047Z,44.02
2016-05-18T08:17:47.877Z,44.69
2016-05-18T08:19:47.914Z,46.12
2016-05-18T08:20:47.933Z,46.31
2016-05-18T08:21:47.889Z,44.79
2016-05-18T08:22:47.704Z,47.85
2016-05-18T08:23:47.831Z,47.85
2016-05-18T08:24:47.881Z,47.11
2016-05-18T08:25:47.884Z,47.39
2016-05-18T08:26:47.855Z,47.87
2016-05-18T08:27:47.837Z,46.46
2016-05-18T08:28:47.726Z,46.55
2016-05-18T08:29:48.005Z,43.77
2016-05-18T08:30:47.893Z,44.09
2016-05-18T08:31:48.032Z,46.58
2016-05-18T08:32:47.930Z,47.44
2016-05-18T08:33:48.244Z,46.19
2016-05-18T08:34:48.935Z,44.27
2016-05-18T08:35:48.234Z,43.23
2016-05-18T08:36:48.987Z,43.8
2016-05-18T08:37:47.736Z,43.41
2016-05-18T08:38:48.104Z,44.3
2016-05-18T08:39:48.955Z,43.53
2016-05-18T08:40:48.995Z,41.42
2016-05-18T08:42:04.378Z,41.61
2016-05-18T08:43:34.703Z,42.38
2016-05-18T08:45:15.349Z,44.11
2016-05-18T08:46:20.916Z,42.77
2016-05-18T08:47:53.269Z,42.77
2016-05-18T08:49:31.948Z,42.1
2016-05-18T08:50:46.076Z,39.33
2016-05-18T08:52:23.783Z,40.39
2016-05-18T08:53:40.227Z,41.06
2016-05-18T08:54:42.995Z,41.35
2016-05-18T08:56:21.529Z,40.39
2016-05-18T08:57:45.019Z,38.76
2016-05-18T08:59:14.990Z,40.39
2016-05-18T09:00:53.402Z,35.97
2016-05-18T09:03:11.641Z,40.2
2016-05-18T09:05:07.460Z,39.81
2016-05-18T09:07:03.918Z,41.54
2016-05-18T09:09:09.126Z,41.63
2016-05-18T09:10:41.851Z,41.83
2016-05-18T09:11:56.384Z,41.73
2016-05-18T09:12:57.543Z,39.04
2016-05-18T09:13:56.281Z,39.72
2016-05-18T09:14:56.579Z,41.73
2016-05-18T09:15:57.067Z,40.29
2016-05-18T09:16:56.289Z,39.72
2016-05-18T09:17:57.198Z,37.32
2016-05-18T09:18:57.309Z,38.56
2016-05-18T09:20:02.547Z,37.6
2016-05-18T09:20:57.361Z,38.28
2016-05-18T09:21:56.395Z,40.87
2016-05-18T09:22:57.242Z,40
2016-05-18T09:23:57.292Z,38.47
2016-05-18T09:24:56.263Z,39.43
2016-05-18T09:25:56.984Z,38.85
2016-05-18T09:26:57.425Z,40.2
2016-05-18T09:27:56.693Z,39.41
2016-05-18T09:28:57.211Z,37.6
2016-05-18T09:29:57.244Z,37.13
2016-05-18T09:30:57.263Z,37.22
2016-05-18T09:31:57.297Z,37.49
2016-05-18T09:32:56.378Z,37.97
2016-05-18T09:33:56.334Z,40.47
2016-05-18T09:34:56.290Z,37.78
2016-05-18T09:35:56.355Z,41.63
2016-05-18T09:36:56.279Z,43.94
2016-05-18T09:37:56.423Z,43.94
2016-05-18T09:38:56.535Z,42.88
2016-05-18T09:39:56.913Z,40.96
2016-05-18T09:40:56.243Z,39.72
2016-05-18T09:41:58.059Z,39.72
2016-05-18T09:42:57.498Z,38.95
2016-05-18T09:43:56.298Z,39.33
2016-05-18T09:44:57.004Z,42.98
2016-05-18T09:45:56.413Z,41.42
2016-05-18T09:46:57.181Z,41.73
2016-05-18T09:47:57.153Z,41.25
2016-05-18T09:48:56.250Z,40.39
2016-05-18T09:49:56.220Z,41.8
2016-05-18T09:50:58.661Z,39.03
2016-05-18T09:51:56.961Z,39.41
2016-05-18T09:52:56.886Z,41.33
2016-05-18T09:53:56.497Z,43.15
2016-05-18T09:54:58.109Z,42.67
2016-05-18T09:55:57.456Z,42.96
2016-05-18T09:56:56.256Z,43.91
2016-05-18T09:57:57.695Z,42.67
2016-05-18T09:58:56.948Z,42.17
2016-05-18T09:59:58.622Z,38.62
2016-05-18T10:00:56.282Z,38.05
2016-05-18T10:01:57.363Z,41.21
2016-05-18T10:02:56.569Z,43.3
2016-05-18T10:03:55.977Z,44.06
2016-05-18T10:04:56.230Z,41.88
2016-05-18T10:05:56.202Z,46.67
2016-05-18T10:06:55.876Z,47.44
2016-05-18T10:07:56.254Z,46.67
2016-05-18T10:08:57.257Z,43.7
2016-05-18T10:09:56.384Z,43.9
2016-05-18T10:10:57.184Z,43.9
2016-05-18T10:11:57.452Z,43.13
2016-05-18T10:12:57.329Z,43.6
2016-05-18T10:13:57.942Z,41.11
2016-05-18T10:14:56.335Z,40.35
2016-05-18T10:15:57.931Z,38.74
2016-05-18T10:16:59.200Z,39.7
2016-05-18T10:17:57.031Z,40.08
2016-05-18T10:18:57.987Z,42
2016-05-18T10:19:57.239Z,46.79
2016-05-18T10:20:56.914Z,44.78
2016-05-18T10:21:56.979Z,44.4
2016-05-18T10:22:56.231Z,42.96
2016-05-18T10:23:56.156Z,43.24
2016-05-18T10:24:56.159Z,42.69
2016-05-18T10:25:55.849Z,42.98
2016-05-18T10:26:58.242Z,41.52
2016-05-18T10:27:55.901Z,40.75
2016-05-18T10:28:57.607Z,40.17
2016-05-18T10:29:58.641Z,40.84
2016-05-18T10:30:57.378Z,43.32
2016-05-18T10:31:56.944Z,42.27
2016-05-18T10:32:56.258Z,41.23
2016-05-18T10:33:56.230Z,42.86
2016-05-18T10:34:57.139Z,43.05
2016-05-18T10:35:56.173Z,42.29
2016-05-18T10:36:55.941Z,43.15
2016-05-18T10:37:55.865Z,43.05
2016-05-18T10:38:56.196Z,43.63
2016-05-18T10:39:57.121Z,44.49
2016-05-18T10:40:56.171Z,43.82
2016-05-18T10:41:58.268Z,42.79
2016-05-18T10:42:56.410Z,41.63
2016-05-18T10:43:56.741Z,41.73
2016-05-18T10:44:56.229Z,45.18
2016-05-18T10:45:56.262Z,42.6
2016-05-18T10:46:56.421Z,40.48
2016-05-18T10:47:57.018Z,40.58
2016-05-18T10:48:55.818Z,39.33
2016-05-18T10:49:56.257Z,41.35
2016-05-18T10:50:56.212Z,43.65
2016-05-18T10:51:55.857Z,41.35
2016-05-18T10:52:56.140Z,41.54
2016-05-18T10:53:56.159Z,43.84
2016-05-18T10:54:56.506Z,41.85
2016-05-18T10:55:56.117Z,36.76
2016-05-18T10:56:57.089Z,36.86
2016-05-18T10:57:56.076Z,39.35
2016-05-18T10:58:57.094Z,37.24
2016-05-18T10:59:56.050Z,36.09
2016-05-18T11:00:56.115Z,39.33
2016-05-18T11:01:57.009Z,39.04
2016-05-18T11:02:56.308Z,38.95
2016-05-18T11:03:57.030Z,39.41
2016-05-18T11:04:57.157Z,40.94
2016-05-18T11:05:57.332Z,37.49
2016-05-18T11:06:57.460Z,37.87
2016-05-18T11:07:56.244Z,38.64
2016-05-18T11:08:59.558Z,41.9
2016-05-18T11:09:58.888Z,42.98
2016-05-18T11:10:59.314Z,41.83
2016-05-18T11:11:59.113Z,41.83
2016-05-18T11:12:59.444Z,41.85
2016-05-18T11:13:58.947Z,39.26
2016-05-18T11:14:58.965Z,40.99
2016-05-18T11:15:59.186Z,38.7
2016-05-18T11:16:59.346Z,36.01
2016-05-18T11:17:59.051Z,37.84
2016-05-18T11:18:58.960Z,41.67
2016-05-18T11:19:59.228Z,38.72
2016-05-18T11:20:59.590Z,38.53
2016-05-18T11:21:58.625Z,38.24
2016-05-18T11:22:59.378Z,37.27
2016-05-18T11:23:59.301Z,35.36
2016-05-18T11:24:59.164Z,36.13
2016-05-18T11:25:59.229Z,36.22
2016-05-18T11:26:59.731Z,36.22
2016-05-18T11:27:59.251Z,35.45
2016-05-18T11:28:59.050Z,37.66
2016-05-18T11:29:59.302Z,36.88
2016-05-18T11:30:59.133Z,35.91
2016-05-18T11:32:01.042Z,34.28
2016-05-18T11:32:59.700Z,35.91
2016-05-18T11:33:58.532Z,36.95
2016-05-18T11:34:59.331Z,37.15
2016-05-18T11:35:58.803Z,36.57
2016-05-18T11:36:59.227Z,37.22
2016-05-18T11:37:58.418Z,36.16
2016-05-18T11:38:59.561Z,35.02
2016-05-18T11:39:58.813Z,34.63
2016-05-18T11:40:58.597Z,35.78
2016-05-18T11:41:59.679Z,36.53
2016-05-18T11:42:59.338Z,35.28
2016-05-18T11:43:59.199Z,37.11
2016-05-18T11:44:58.983Z,39.7
2016-05-18T11:45:58.985Z,37.87
2016-05-18T11:46:59.160Z,39.7
2016-05-18T11:47:58.726Z,38.62
2016-05-18T11:48:58.931Z,37.97
2016-05-18T11:49:59.841Z,38.81
2016-05-18T11:50:59.124Z,37.09
2016-05-18T11:51:59.111Z,36.9
2016-05-18T11:52:58.818Z,36.04
2016-05-18T11:53:58.898Z,36.61
2016-05-18T11:54:59.026Z,38.7
2016-05-18T11:55:59.106Z,38.6
2016-05-18T11:56:59.000Z,39.28
2016-05-18T11:57:59.440Z,38.22
2016-05-18T11:59:12.099Z,38.22
2016-05-18T12:00:26.211Z,38.98
2016-05-18T12:01:45.060Z,37.15
2016-05-18T12:03:06.594Z,38.1
2016-05-18T12:04:36.053Z,38.6
2016-05-18T12:06:09.883Z,38.39
2016-05-18T12:07:42.420Z,40.02
2016-05-18T12:08:48.922Z,39.83
2016-05-18T12:10:05.879Z,38.96
2016-05-18T12:13:11.871Z,40.59
2016-05-18T12:15:18.923Z,40.52
2016-05-18T12:17:18.679Z,39.56
2016-05-18T12:18:34.138Z,41.19
2016-05-18T12:20:35.345Z,39.28
2016-05-18T12:22:17.771Z,38.7
2016-05-18T12:24:25.712Z,38.14
2016-05-18T12:26:25.140Z,35.75
2016-05-18T12:28:27.020Z,38.14
2016-05-18T12:28:52.336Z,37.3
2016-05-18T12:29:53.292Z,37.59
2016-05-18T12:30:52.231Z,33.94
2016-05-18T12:31:53.703Z,34.9
2016-05-18T12:32:53.722Z,37.01
2016-05-18T12:34:01.583Z,37.87
2016-05-18T12:34:52.900Z,38.74
2016-05-18T12:35:52.386Z,36.84
2016-05-18T12:36:53.497Z,36.84
2016-05-18T12:37:52.720Z,34.82
2016-05-18T12:38:52.644Z,29.93
2016-05-18T12:39:52.146Z,33.29
2016-05-18T12:40:53.493Z,35.69
2016-05-18T12:41:54.480Z,37.22
2016-05-18T12:42:52.530Z,37.53
2016-05-18T12:43:52.704Z,36.57
2016-05-18T12:44:53.473Z,33.69
2016-05-18T12:45:52.538Z,33.4
2016-05-18T12:46:52.447Z,33.59
2016-05-18T12:47:52.559Z,31.96
2016-05-18T12:48:52.592Z,34.45
2016-05-18T12:49:52.424Z,35.53
2016-05-18T12:50:53.192Z,34.95
2016-05-18T12:51:52.835Z,32.36
2016-05-18T12:52:52.510Z,31.02
2016-05-18T12:53:53.918Z,30.54
2016-05-18T12:54:52.843Z,29
2016-05-18T12:55:53.440Z,29.96
2016-05-18T12:56:53.771Z,30.44
2016-05-18T12:57:53.211Z,29.97
2016-05-18T12:58:53.214Z,30.84
2016-05-18T12:59:53.122Z,30.46
2016-05-18T13:00:53.453Z,30.38
2016-05-18T13:01:53.269Z,29.41
2016-05-18T13:02:52.740Z,28.84
2016-05-18T13:03:53.055Z,30.28
2016-05-18T13:04:53.495Z,30.18
2016-05-18T13:05:53.483Z,27.11
2016-05-18T13:06:52.548Z,26.43
2016-05-18T13:07:53.222Z,26.43
2016-05-18T13:08:53.428Z,26.62
2016-05-18T13:09:52.728Z,29.8
2016-05-18T13:10:53.449Z,28.74
2016-05-18T13:11:52.561Z,29.41
2016-05-18T13:12:53.282Z,29.14
2016-05-18T13:13:53.269Z,30.29
2016-05-18T13:14:53.147Z,28.85
2016-05-18T13:15:53.322Z,27.39
2016-05-18T13:16:53.246Z,23.65
2016-05-18T13:17:53.108Z,26.82
2016-05-18T13:18:53.252Z,27.58
2016-05-18T13:19:52.238Z,27.95
2016-05-18T13:20:53.491Z,29.11
2016-05-18T13:21:53.401Z,28.44
2016-05-18T13:22:52.512Z,29.79
2016-05-18T13:23:52.890Z,29.4
2016-05-18T13:24:53.486Z,29.1
2016-05-18T13:25:53.661Z,28.42
2016-05-18T13:26:53.382Z,28.14
2016-05-18T13:27:53.557Z,28.42
2016-05-18T13:28:52.466Z,29.08
2016-05-18T13:29:57.547Z,28.41
2016-05-18T13:30:53.564Z,30.14
2016-05-18T13:31:53.287Z,30.62
2016-05-18T13:32:53.523Z,29.27
2016-05-18T13:33:52.542Z,27.45
2016-05-18T13:35:53.532Z,27.34
2016-05-18T13:36:53.503Z,25.13
2016-05-18T13:37:52.553Z,27.53
2016-05-18T13:38:53.789Z,29.06
2016-05-18T13:39:53.886Z,28.97
2016-05-18T13:40:53.264Z,28.88